^^
Turner Downs-Weather Station Historical Data
 
Daily Summary for December 13, 2019 Units:  English    Metric   Both
Daily Weekly Monthly Yearly Custom
  Current: High: Low: Average:
Temperature: 37 °F 37.1 °F 36.8 °F 37 °F
Dew Point: 31.7 °F 31.7 °F 29.3 °F 30.8 °F
Humidity: 81% 81% 74% 78%
Wind Speed: 3mph 10mph 0mph 4mph
Wind Gust: 5mph 15mph - -
WindNE - - ENE
Pressure: 30.33 in 30.42 in 30.33 in -
Precipitation: 0 in      
Historical Graphs
 
 
Tabular Data for December 13, 2019
Time Temperature Dew Point Pressure Wind Wind Speed Wind Gust Humidity Rainfall Rate (Hourly) solar
00:00 36.8 °F 29.3 °F 30.42 in ENE 3 mph 5 mph 74% 0 in WeatherDisplay:10.37 W/m2
00:05 36.9 °F 29.4 °F 30.41 in Calm   3 mph 74% 0 in WeatherDisplay:10.37 W/m2
00:10 36.9 °F 29.7 °F 30.41 in ENE 3 mph 6 mph 75% 0 in WeatherDisplay:10.37 W/m2
00:15 36.9 °F 29.7 °F 30.41 in ENE 1 mph 5 mph 75% 0 in WeatherDisplay:10.37 W/m2
00:20 37 °F 29.8 °F 30.41 in ENE 1 mph 5 mph 75% 0 in WeatherDisplay:10.37 W/m2
00:25 37 °F 29.8 °F 30.40 in ENE 2 mph 5 mph 75% 0 in WeatherDisplay:10.37 W/m2
00:30 37 °F 30.1 °F 30.40 in ENE 2 mph 6 mph 76% 0 in WeatherDisplay:10.37 W/m2
00:35 37 °F 30.1 °F 30.40 in ENE 3 mph 6 mph 76% 0 in WeatherDisplay:10.37 W/m2
00:40 37 °F 30.1 °F 30.40 in NE 2 mph 3 mph 76% 0 in WeatherDisplay:10.37 W/m2
00:45 37 °F 30.1 °F 30.40 in NE 5 mph 5 mph 76% 0 in WeatherDisplay:10.37 W/m2
00:50 37 °F 30.5 °F 30.39 in ENE 7 mph 9 mph 77% 0 in WeatherDisplay:10.37 W/m2
00:55 36.9 °F 30.4 °F 30.38 in ENE 3 mph 6 mph 77% 0 in WeatherDisplay:10.37 W/m2
01:00 36.9 °F 30.4 °F 30.39 in ENE 3 mph 6 mph 77% 0 in WeatherDisplay:10.37 W/m2
01:05 36.8 °F 30.6 °F 30.39 in ENE 3 mph 6 mph 78% 0 in WeatherDisplay:10.37 W/m2
01:10 36.8 °F 30.6 °F 30.39 in ENE 3 mph 5 mph 78% 0 in WeatherDisplay:10.37 W/m2
01:15 36.8 °F 30.6 °F 30.39 in ENE 1 mph 8 mph 78% 0 in WeatherDisplay:10.37 W/m2
01:20 36.9 °F 31 °F 30.39 in ENE 3 mph 5 mph 79% 0 in WeatherDisplay:10.37 W/m2
01:25 37 °F 31.1 °F 30.39 in ENE 3 mph 12 mph 79% 0 in WeatherDisplay:10.37 W/m2
01:30 37 °F 31.1 °F 30.38 in ENE 7 mph 12 mph 79% 0 in WeatherDisplay:10.37 W/m2
01:35 37 °F 31.1 °F 30.38 in ENE 6 mph 8 mph 79% 0 in WeatherDisplay:10.37 W/m2
01:40 37 °F 31.1 °F 30.37 in ENE 6 mph 15 mph 79% 0 in WeatherDisplay:10.37 W/m2
01:45 37.1 °F 31.5 °F 30.37 in ENE 3 mph 8 mph 80% 0 in WeatherDisplay:10.37 W/m2
01:50 37.1 °F 31.5 °F 30.36 in ENE 3 mph 6 mph 80% 0 in WeatherDisplay:10.37 W/m2
01:55 37.1 °F 31.2 °F 30.36 in ENE 9 mph 14 mph 79% 0 in WeatherDisplay:10.37 W/m2
02:00 37.1 °F 31.2 °F 30.36 in ENE 5 mph 14 mph 79% 0 in WeatherDisplay:10.37 W/m2
02:05 37 °F 31.4 °F 30.35 in ENE 10 mph 12 mph 80% 0 in WeatherDisplay:10.37 W/m2
02:10 37 °F 31.4 °F 30.35 in ENE 6 mph 6 mph 80% 0 in WeatherDisplay:10.37 W/m2
02:15 37 °F 31.4 °F 30.34 in ENE 2 mph 10 mph 80% 0 in WeatherDisplay:10.37 W/m2
02:20 37 °F 31.4 °F 30.34 in ENE 7 mph 10 mph 80% 0 in WeatherDisplay:10.37 W/m2
02:25 37 °F 31.4 °F 30.34 in ENE 5 mph 6 mph 80% 0 in WeatherDisplay:10.37 W/m2
02:30 37 °F 31.7 °F 30.33 in ENE 10 mph 14 mph 81% 0 in WeatherDisplay:10.37 W/m2
02:35 36.9 °F 31.6 °F 30.33 in ENE 3 mph 8 mph 81% 0 in WeatherDisplay:10.37 W/m2
02:40 36.9 °F 31.6 °F 30.33 in ENE 2 mph 6 mph 81% 0 in WeatherDisplay:10.37 W/m2
02:45 37 °F 31.7 °F 30.33 in NE 3 mph 5 mph 81% 0 in WeatherDisplay:10.37 W/m2
Raleigh, North Carolina, USA
Compliments of Weather Underground - 1.75 mb